Time;durP1;ratioP1;P1;durP2;ratioP2;P2;SDS_P1;SDS_P2;PMS_P1;PMS_P2;Temp;Humidity;BMP_temperature;BMP_pressure;BME280_temperature;BME280_humidity;BME280_pressure;Samples;Min_cycle;Max_cycle;Signal;HPM_P1;HPM_P2
2023/02/06 00:01:25;;;;;;;8.40;4.68;;;9.60;83.00;;;;;;6072212;23;20003;-79
2023/02/06 00:03:51;;;;;;;10.52;5.05;;;9.60;83.00;;;;;;6072450;23;20006;-79
2023/02/06 00:06:17;;;;;;;10.52;5.28;;;9.60;83.00;;;;;;6097227;23;20009;-79
2023/02/06 00:08:42;;;;;;;8.52;4.63;;;9.60;83.10;;;;;;6098466;23;20003;-80
2023/02/06 00:11:11;;;;;;;9.68;4.72;;;9.50;82.90;;;;;;6099274;23;20017;-79
2023/02/06 00:13:37;;;;;;;8.23;4.65;;;9.60;82.80;;;;;;6097404;23;20086;-80
2023/02/06 00:16:03;;;;;;;8.32;4.43;;;9.60;82.80;;;;;;6069837;23;20003;-79
2023/02/06 00:18:29;;;;;;;9.23;4.65;;;9.60;82.80;;;;;;6071319;23;20081;-79
2023/02/06 00:20:55;;;;;;;10.57;4.43;;;9.60;82.80;;;;;;6096798;23;20003;-80
2023/02/06 00:23:20;;;;;;;9.70;4.30;;;9.50;82.70;;;;;;6099170;23;20006;-80
2023/02/06 00:25:46;;;;;;;8.93;4.68;;;9.50;83.10;;;;;;6074322;23;20007;-80
2023/02/06 00:28:11;;;;;;;8.60;4.00;;;9.60;82.70;;;;;;6100584;23;20003;-80
2023/02/06 00:30:37;;;;;;;11.27;4.53;;;9.60;82.70;;;;;;6100299;23;20056;-79
2023/02/06 00:33:03;;;;;;;8.52;4.18;;;9.50;82.60;;;;;;6099217;23;20441;-80
2023/02/06 00:35:28;;;;;;;9.95;3.80;;;9.50;82.60;;;;;;6073479;23;20156;-79
2023/02/06 00:37:54;;;;;;;9.93;4.30;;;9.60;82.70;;;;;;6098827;23;20093;-80
2023/02/06 00:40:19;;;;;;;10.82;4.30;;;9.50;82.60;;;;;;6097389;23;20341;-79
2023/02/06 00:42:45;;;;;;;8.75;4.05;;;9.50;82.50;;;;;;6099372;23;20025;-78
2023/02/06 00:45:10;;;;;;;11.27;4.25;;;9.50;82.60;;;;;;6101705;23;19994;-79
2023/02/06 00:47:36;;;;;;;9.48;4.30;;;9.60;82.50;;;;;;6073888;23;20337;-79
2023/02/06 00:50:02;;;;;;;9.40;4.07;;;9.50;82.50;;;;;;6098577;23;20009;-79
2023/02/06 00:52:27;;;;;;;10.10;4.35;;;9.50;82.60;;;;;;6097735;23;20086;-79
2023/02/06 00:54:53;;;;;;;8.73;3.83;;;9.50;82.50;;;;;;6100327;23;20006;-80
2023/02/06 00:57:18;;;;;;;10.35;3.92;;;9.50;82.40;;;;;;6074312;23;20002;-79
2023/02/06 00:59:44;;;;;;;10.40;3.50;;;9.50;82.50;;;;;;6096689;23;20516;-80
2023/02/06 01:02:09;;;;;;;8.25;3.55;;;9.50;82.40;;;;;;6095327;23;20030;-79
2023/02/06 01:04:35;;;;;;;10.65;3.95;;;9.50;82.30;;;;;;6073346;23;20046;-79
2023/02/06 01:07:01;;;;;;;9.80;4.15;;;9.50;82.30;;;;;;6099945;23;20090;-79
2023/02/06 01:09:26;;;;;;;10.70;4.10;;;9.50;82.40;;;;;;6096307;23;20010;-79
2023/02/06 01:11:52;;;;;;;10.77;3.75;;;9.50;82.30;;;;;;6096621;23;20002;-80
2023/02/06 01:14:17;;;;;;;10.93;3.45;;;9.50;82.30;;;;;;6096663;23;20077;-80
2023/02/06 01:16:42;;;;;;;8.80;3.97;;;9.50;82.30;;;;;;6100500;23;20333;-82
2023/02/06 01:19:08;;;;;;;11.57;3.40;;;9.50;82.40;;;;;;6072118;23;20002;-77
2023/02/06 01:21:35;;;;;;;9.00;3.40;;;9.50;82.20;;;;;;6097171;23;20353;-79
2023/02/06 01:24:01;;;;;;;10.02;3.75;;;9.50;82.20;;;;;;6096215;23;20014;-79
2023/02/06 01:26:27;;;;;;;10.98;3.60;;;9.50;82.20;;;;;;6095542;23;20007;-81
2023/02/06 01:28:53;;;;;;;9.55;3.13;;;9.50;82.10;;;;;;6096730;23;20039;-79
2023/02/06 01:31:26;;;;;;;10.02;3.40;;;9.50;82.10;;;;;;6097167;23;20354;-79
2023/02/06 01:33:53;;;;;;;10.13;3.95;;;9.50;82.20;;;;;;6070657;23;20449;-79
2023/02/06 01:36:19;;;;;;;10.05;3.28;;;9.50;82.10;;;;;;6070112;23;20061;-79
2023/02/06 01:38:45;;;;;;;8.68;3.38;;;9.50;82.10;;;;;;6096123;23;20074;-79
2023/02/06 01:41:12;;;;;;;9.75;3.28;;;9.50;82.00;;;;;;6096847;23;20082;-78
2023/02/06 01:43:40;;;;;;;10.63;3.70;;;9.50;82.00;;;;;;6096843;23;20056;-79
2023/02/06 01:46:07;;;;;;;10.52;3.58;;;9.50;82.10;;;;;;6073614;23;20042;-80
2023/02/06 01:48:42;;;;;;;11.32;3.67;;;9.50;82.70;;;;;;6075654;23;20093;-79
2023/02/06 01:51:17;;;;;;;10.65;3.60;;;9.50;82.00;;;;;;6098576;23;20017;-80
2023/02/06 01:53:45;;;;;;;8.88;3.20;;;9.50;81.90;;;;;;6070462;23;20003;-79
2023/02/06 01:56:11;;;;;;;11.27;3.28;;;9.50;81.90;;;;;;6096346;23;20002;-79
2023/02/06 01:58:41;;;;;;;12.52;3.38;;;9.50;81.80;;;;;;6071347;23;20026;-77
2023/02/06 02:01:07;;;;;;;10.73;2.92;;;9.50;81.90;;;;;;6072811;23;20030;-79
2023/02/06 02:03:35;;;;;;;12.82;3.30;;;9.50;81.90;;;;;;6099080;23;20093;-81
2023/02/06 02:06:06;;;;;;;7.82;2.80;;;9.50;81.80;;;;;;6074376;23;20056;-81
2023/02/06 02:08:36;;;;;;;8.98;2.95;;;9.50;82.10;;;;;;6102332;23;20003;-80
2023/02/06 02:11:04;;;;;;;9.95;2.95;;;9.50;81.80;;;;;;6072693;23;20010;-79
2023/02/06 02:13:30;;;;;;;8.65;3.20;;;9.50;81.80;;;;;;6097780;23;20096;-78
2023/02/06 02:16:01;;;;;;;8.65;2.35;;;9.50;81.80;;;;;;6068868;23;20082;-80
2023/02/06 02:18:39;;;;;;;9.88;2.60;;;9.50;81.70;;;;;;6068717;23;20030;-79
2023/02/06 02:21:33;;;;;;;7.95;2.78;;;9.50;81.80;;;;;;6097232;23;20010;-79
2023/02/06 02:24:49;;;;;;;9.32;2.72;;;9.40;81.70;;;;;;6096105;23;20002;-79
2023/02/06 02:27:47;;;;;;;12.45;3.25;;;9.50;81.80;;;;;;6058709;23;20017;-79
2023/02/06 02:30:28;;;;;;;8.63;2.70;;;9.50;81.60;;;;;;6097102;23;20030;-81
2023/02/06 02:33:15;;;;;;;10.27;2.97;;;9.50;81.70;;;;;;6069256;23;20014;-80
2023/02/06 02:35:44;;;;;;;11.50;3.00;;;9.50;81.60;;;;;;6068979;23;20002;-79
2023/02/06 02:38:38;;;;;;;10.35;3.30;;;9.50;81.70;;;;;;6089164;23;20010;-78
2023/02/06 02:41:13;;;;;;;9.10;3.58;;;9.50;81.60;;;;;;6094032;23;20437;-79
2023/02/06 02:43:44;;;;;;;11.20;3.25;;;9.50;81.70;;;;;;6096315;23;20013;-78
2023/02/06 02:46:33;;;;;;;11.82;3.05;;;9.40;81.50;;;;;;6093934;23;20018;-80
2023/02/06 02:49:07;;;;;;;10.80;2.90;;;9.50;81.60;;;;;;6095004;23;20006;-79
2023/02/06 02:51:34;;;;;;;8.40;2.90;;;9.50;81.50;;;;;;6093360;23;20093;-78
2023/02/06 02:53:59;;;;;;;9.02;2.78;;;9.50;81.50;;;;;;6093499;23;20007;-79
2023/02/06 02:56:25;;;;;;;8.80;2.60;;;9.50;81.50;;;;;;6097729;23;20062;-79
2023/02/06 02:59:22;;;;;;;7.25;2.20;;;9.40;81.50;;;;;;6098536;23;20010;-79
2023/02/06 03:01:55;;;;;;;8.63;2.58;;;9.50;81.50;;;;;;6098393;23;20007;-80
2023/02/06 03:04:36;;;;;;;8.20;2.53;;;9.50;81.60;;;;;;6097315;23;20007;-78
2023/02/06 03:07:23;;;;;;;9.43;3.10;;;9.50;81.40;;;;;;6098226;23;20002;-80
2023/02/06 03:10:12;;;;;;;9.25;2.75;;;9.40;82.10;;;;;;6096655;23;20089;-79
2023/02/06 03:13:00;;;;;;;8.05;2.33;;;9.50;81.40;;;;;;6098414;23;20007;-78
2023/02/06 03:15:34;;;;;;;9.95;2.72;;;9.50;81.30;;;;;;6097808;23;20002;-79
2023/02/06 03:18:15;;;;;;;9.45;3.20;;;9.40;81.20;;;;;;6099076;23;20003;-78
2023/02/06 03:20:43;;;;;;;9.90;3.30;;;9.50;81.30;;;;;;6096751;23;20034;-79
2023/02/06 03:23:19;;;;;;;8.85;2.80;;;9.50;81.50;;;;;;6097807;23;20003;-78
2023/02/06 03:25:48;;;;;;;9.98;3.30;;;9.50;81.40;;;;;;6096969;23;20445;-79
2023/02/06 03:28:36;;;;;;;7.10;2.40;;;9.50;81.30;;;;;;6097365;23;19994;-79
2023/02/06 03:31:06;;;;;;;8.77;2.55;;;9.40;81.20;;;;;;6098867;23;20396;-79
2023/02/06 03:33:36;;;;;;;8.30;2.65;;;9.50;81.30;;;;;;6098222;23;20016;-79
2023/02/06 03:36:04;;;;;;;9.88;2.90;;;9.50;81.30;;;;;;6095839;23;20038;-80
2023/02/06 03:38:30;;;;;;;9.07;2.63;;;9.40;81.20;;;;;;6098119;23;20010;-79
2023/02/06 03:40:58;;;;;;;8.80;2.38;;;9.40;81.20;;;;;;6074537;23;20014;-80
2023/02/06 03:43:25;;;;;;;12.52;3.15;;;9.50;81.60;;;;;;6098671;23;20011;-79
2023/02/06 03:45:56;;;;;;;8.23;2.80;;;9.40;81.20;;;;;;6099699;23;20003;-79
2023/02/06 03:48:38;;;;;;;8.80;2.53;;;9.40;81.10;;;;;;6100851;23;20003;-79
2023/02/06 03:51:10;;;;;;;11.52;2.60;;;9.40;81.00;;;;;;6074325;23;20353;-79
2023/02/06 03:53:37;;;;;;;8.43;2.65;;;9.40;81.10;;;;;;6074681;23;20089;-79
2023/02/06 03:56:29;;;;;;;9.10;2.40;;;9.40;81.40;;;;;;6073922;23;20010;-81
2023/02/06 03:58:55;;;;;;;9.68;2.50;;;9.40;81.10;;;;;;6099812;23;19998;-80
2023/02/06 04:01:22;;;;;;;9.82;2.83;;;9.40;81.00;;;;;;6099777;23;20356;-79
2023/02/06 04:03:47;;;;;;;7.88;2.85;;;9.40;81.00;;;;;;6073448;23;20010;-79
2023/02/06 04:06:13;;;;;;;10.27;3.00;;;9.40;81.00;;;;;;6098793;23;20354;-79
2023/02/06 04:08:38;;;;;;;10.25;3.20;;;9.40;80.90;;;;;;6098427;23;20080;-80
2023/02/06 04:11:04;;;;;;;8.80;2.97;;;9.40;81.00;;;;;;6099420;23;20449;-79
2023/02/06 04:13:29;;;;;;;10.23;3.05;;;9.40;81.20;;;;;;6074660;23;20003;-80
2023/02/06 04:15:55;;;;;;;10.48;2.88;;;9.40;80.80;;;;;;6066228;23;20057;-80
2023/02/06 04:18:21;;;;;;;8.77;2.90;;;9.40;80.80;;;;;;6092436;23;20009;-79
2023/02/06 04:20:46;;;;;;;11.25;3.15;;;9.40;80.80;;;;;;6067839;23;20003;-83
2023/02/06 04:23:12;;;;;;;8.20;2.80;;;9.40;81.10;;;;;;6065849;23;20581;-78
2023/02/06 04:25:37;;;;;;;8.85;2.53;;;9.40;81.00;;;;;;6061521;23;20453;-78
2023/02/06 04:28:03;;;;;;;8.82;2.63;;;9.40;80.90;;;;;;6065813;23;20013;-77
2023/02/06 04:30:28;;;;;;;9.10;2.78;;;9.40;80.90;;;;;;6064093;23;20621;-78
2023/02/06 04:32:54;;;;;;;9.02;2.88;;;9.40;80.90;;;;;;6065222;23;20429;-79
2023/02/06 04:35:19;;;;;;;10.35;2.95;;;9.40;80.90;;;;;;6091495;23;20012;-79
2023/02/06 04:37:45;;;;;;;10.25;2.92;;;9.40;80.80;;;;;;6081380;23;20046;-81
2023/02/06 04:40:11;;;;;;;11.80;2.95;;;9.40;80.80;;;;;;6090150;23;20052;-78
2023/02/06 04:42:36;;;;;;;7.95;2.70;;;9.40;80.80;;;;;;6090243;23;20057;-78
2023/02/06 04:45:02;;;;;;;8.18;2.60;;;9.40;80.80;;;;;;6090070;23;20502;-78
2023/02/06 04:47:28;;;;;;;7.22;2.65;;;9.40;80.90;;;;;;6092645;23;20106;-78
2023/02/06 04:49:53;;;;;;;9.98;2.72;;;9.40;80.80;;;;;;6090579;23;20014;-78
2023/02/06 04:52:19;;;;;;;10.73;3.15;;;9.40;80.80;;;;;;6090927;23;20006;-80
2023/02/06 04:54:44;;;;;;;8.43;2.65;;;9.40;80.80;;;;;;6090132;23;20025;-79
2023/02/06 04:57:10;;;;;;;12.32;3.47;;;9.40;80.50;;;;;;6090170;23;20003;-79
2023/02/06 04:59:35;;;;;;;10.43;2.63;;;9.40;80.70;;;;;;6090968;23;20034;-82
2023/02/06 05:02:01;;;;;;;12.15;3.10;;;9.40;80.70;;;;;;6091830;23;20089;-80
2023/02/06 05:04:26;;;;;;;9.85;2.75;;;9.40;80.50;;;;;;6090020;23;20523;-82
2023/02/06 05:06:52;;;;;;;9.73;3.05;;;9.40;80.20;;;;;;6090104;23;20121;-78
2023/02/06 05:09:17;;;;;;;10.82;3.03;;;9.40;80.70;;;;;;6089115;23;20010;-79
2023/02/06 05:11:43;;;;;;;9.85;2.90;;;9.40;80.40;;;;;;6088993;23;20010;-77
2023/02/06 05:14:08;;;;;;;10.82;2.83;;;9.40;80.50;;;;;;6086868;23;20000;-79
2023/02/06 05:16:34;;;;;;;10.70;2.95;;;9.40;80.50;;;;;;6086127;23;20048;-76
2023/02/06 05:18:59;;;;;;;8.52;2.90;;;9.40;80.60;;;;;;6087762;23;20003;-77
2023/02/06 05:21:25;;;;;;;10.00;3.60;;;9.40;80.70;;;;;;6085554;23;20430;-75
2023/02/06 05:23:51;;;;;;;9.18;3.50;;;9.40;80.50;;;;;;6083918;23;20097;-75
2023/02/06 05:26:17;;;;;;;10.63;3.22;;;9.40;80.60;;;;;;6083603;23;20472;-75
2023/02/06 05:28:43;;;;;;;8.93;2.83;;;9.40;80.40;;;;;;6108329;23;20034;-77
2023/02/06 05:31:08;;;;;;;8.60;2.90;;;9.40;80.60;;;;;;6083830;23;20002;-76
2023/02/06 05:33:34;;;;;;;8.88;3.15;;;9.40;80.50;;;;;;6083915;23;20105;-78
2023/02/06 05:36:05;;;;;;;9.32;3.28;;;9.40;80.50;;;;;;6085670;23;20762;-75
2023/02/06 05:38:31;;;;;;;8.70;2.97;;;9.40;80.60;;;;;;6085803;23;20504;-75
2023/02/06 05:40:57;;;;;;;8.38;2.78;;;9.40;80.50;;;;;;6084274;23;20213;-76
2023/02/06 05:43:22;;;;;;;11.10;3.17;;;9.40;80.50;;;;;;6060346;23;20445;-78
2023/02/06 05:45:48;;;;;;;10.38;3.30;;;9.40;80.90;;;;;;6084523;23;20010;-76
2023/02/06 05:48:13;;;;;;;9.63;3.40;;;9.40;80.50;;;;;;6085932;23;20349;-75
2023/02/06 05:50:39;;;;;;;9.30;3.78;;;9.40;80.60;;;;;;6085927;23;20049;-76
2023/02/06 05:53:04;;;;;;;9.55;2.90;;;9.40;80.60;;;;;;6086232;23;20006;-76
2023/02/06 05:55:30;;;;;;;9.63;3.25;;;9.40;80.50;;;;;;6084927;23;20007;-76
2023/02/06 05:57:55;;;;;;;8.90;3.20;;;9.40;80.60;;;;;;6061557;23;20519;-76
2023/02/06 06:00:21;;;;;;;9.23;3.15;;;9.40;80.60;;;;;;6090003;23;20041;-80
2023/02/06 06:02:46;;;;;;;8.63;3.25;;;9.40;80.60;;;;;;6094857;23;20002;-79
2023/02/06 06:05:12;;;;;;;10.38;3.30;;;9.40;80.70;;;;;;6092326;23;20010;-80
2023/02/06 06:07:37;;;;;;;8.57;3.42;;;9.40;80.60;;;;;;6090980;23;20038;-78
2023/02/06 06:10:03;;;;;;;7.72;3.13;;;9.30;80.50;;;;;;6064115;23;20014;-81
2023/02/06 06:12:29;;;;;;;7.80;2.97;;;9.40;80.60;;;;;;6087609;23;20445;-78
2023/02/06 06:14:54;;;;;;;7.63;3.17;;;9.40;80.50;;;;;;6063587;23;20010;-82
2023/02/06 06:17:20;;;;;;;10.18;3.53;;;9.40;80.70;;;;;;6091536;23;20001;-80
2023/02/06 06:19:45;;;;;;;8.60;3.53;;;9.40;80.60;;;;;;6091900;23;20064;-80
2023/02/06 06:22:11;;;;;;;8.85;3.30;;;9.40;80.50;;;;;;6066554;23;20011;-80
2023/02/06 06:24:36;;;;;;;8.63;3.28;;;9.40;80.50;;;;;;6089983;23;20345;-83
2023/02/06 06:27:02;;;;;;;10.00;3.83;;;9.40;80.90;;;;;;6090290;23;20152;-78
2023/02/06 06:29:28;;;;;;;10.20;3.38;;;9.40;80.40;;;;;;6064617;23;20107;-80
2023/02/06 06:31:54;;;;;;;9.55;3.38;;;9.40;79.70;;;;;;6094396;23;20588;-83
2023/02/06 06:34:19;;;;;;;7.03;2.97;;;9.40;79.70;;;;;;6073957;23;20010;-81
2023/02/06 06:36:45;;;;;;;8.50;3.50;;;9.40;80.30;;;;;;6077647;23;20014;-81
2023/02/06 06:39:11;;;;;;;8.43;3.25;;;9.40;80.70;;;;;;6097344;23;20003;-83
2023/02/06 06:41:36;;;;;;;8.80;3.15;;;9.40;81.00;;;;;;6097237;23;20000;-80
2023/02/06 06:44:02;;;;;;;7.65;3.10;;;9.40;81.30;;;;;;6098200;23;20010;-82
2023/02/06 06:46:28;;;;;;;7.88;2.90;;;9.40;81.40;;;;;;6096588;23;20002;-80
2023/02/06 06:48:53;;;;;;;8.82;3.00;;;9.40;81.40;;;;;;6094812;23;20010;-80
2023/02/06 06:51:19;;;;;;;8.35;3.17;;;9.40;81.60;;;;;;6097159;23;20331;-82
2023/02/06 06:53:44;;;;;;;8.40;2.97;;;9.40;81.70;;;;;;6094272;23;20010;-80
2023/02/06 06:56:12;;;;;;;7.97;3.10;;;9.40;81.80;;;;;;6096444;23;20314;-80
2023/02/06 06:58:38;;;;;;;8.60;3.20;;;9.40;81.70;;;;;;6098291;23;19998;-81
2023/02/06 07:01:04;;;;;;;6.55;2.92;;;9.40;81.80;;;;;;6095794;23;20318;-81
2023/02/06 07:03:30;;;;;;;7.47;3.00;;;9.40;81.90;;;;;;6098080;23;20013;-82
2023/02/06 07:05:57;;;;;;;8.63;3.17;;;9.40;82.00;;;;;;6100328;23;20002;-80
2023/02/06 07:08:22;;;;;;;9.23;3.20;;;9.40;82.00;;;;;;6101177;23;20007;-82
2023/02/06 07:10:48;;;;;;;8.35;3.00;;;9.40;82.00;;;;;;6099791;23;20408;-82
2023/02/06 07:13:14;;;;;;;7.47;2.92;;;9.40;82.00;;;;;;6099779;23;20029;-81
2023/02/06 07:15:40;;;;;;;7.95;3.25;;;9.40;82.10;;;;;;6099028;23;20033;-81
2023/02/06 07:18:06;;;;;;;6.65;3.00;;;9.40;82.10;;;;;;6100556;23;20491;-81
2023/02/06 07:20:31;;;;;;;7.45;2.67;;;9.40;82.20;;;;;;6100612;23;20069;-82
2023/02/06 07:22:57;;;;;;;10.27;3.40;;;9.40;82.20;;;;;;6097911;23;20468;-83
2023/02/06 07:25:22;;;;;;;7.85;3.15;;;9.40;82.20;;;;;;6100672;23;20003;-81
2023/02/06 07:27:48;;;;;;;7.18;3.08;;;9.40;82.30;;;;;;6098506;23;20002;-81
2023/02/06 07:30:14;;;;;;;9.07;3.35;;;9.30;82.20;;;;;;6121612;23;20007;-81
2023/02/06 07:32:39;;;;;;;7.40;2.92;;;9.40;82.30;;;;;;6099465;23;20010;-81
2023/02/06 07:35:06;;;;;;;7.43;3.22;;;9.40;82.30;;;;;;6096617;23;20010;-79
2023/02/06 07:37:31;;;;;;;6.35;2.67;;;9.40;82.40;;;;;;6097775;23;20128;-80
2023/02/06 07:39:57;;;;;;;6.60;3.10;;;9.40;82.40;;;;;;6098743;23;20003;-82
2023/02/06 07:42:23;;;;;;;8.60;3.40;;;9.40;82.40;;;;;;6072144;23;20028;-80
2023/02/06 07:44:49;;;;;;;6.97;2.95;;;9.40;82.50;;;;;;6072160;23;20014;-80
2023/02/06 07:47:14;;;;;;;7.32;2.90;;;9.40;82.50;;;;;;6096685;23;20042;-81
2023/02/06 07:49:40;;;;;;;8.10;2.80;;;9.40;82.50;;;;;;6097555;23;20053;-80
2023/02/06 07:52:05;;;;;;;7.55;2.78;;;9.40;82.50;;;;;;6097110;23;20013;-81
2023/02/06 07:54:32;;;;;;;6.28;2.70;;;9.40;82.50;;;;;;6096542;23;20052;-80
2023/02/06 07:56:57;;;;;;;6.90;2.90;;;9.40;82.50;;;;;;6096563;23;20445;-80
2023/02/06 07:59:23;;;;;;;7.30;2.95;;;9.40;82.50;;;;;;6096700;23;20006;-80
2023/02/06 08:01:48;;;;;;;7.03;2.70;;;9.40;82.50;;;;;;6094930;23;20395;-80
2023/02/06 08:04:14;;;;;;;6.15;2.83;;;9.40;82.50;;;;;;6095565;23;20006;-81
2023/02/06 08:06:43;;;;;;;7.55;3.00;;;9.40;82.50;;;;;;6096516;23;20012;-80
2023/02/06 08:09:12;;;;;;;7.88;3.17;;;9.40;82.50;;;;;;6098044;23;20010;-81
2023/02/06 08:11:38;;;;;;;5.88;2.88;;;9.40;82.60;;;;;;6075050;23;20007;-80
2023/02/06 08:14:03;;;;;;;5.38;2.60;;;9.40;82.60;;;;;;6076730;23;20011;-82
2023/02/06 08:16:29;;;;;;;5.97;2.75;;;9.40;82.60;;;;;;6098984;23;20456;-80
2023/02/06 08:18:55;;;;;;;6.18;2.60;;;9.30;82.50;;;;;;6097065;23;20342;-80
2023/02/06 08:21:22;;;;;;;5.55;2.58;;;9.40;82.60;;;;;;6097054;23;20003;-80
2023/02/06 08:23:54;;;;;;;6.05;3.22;;;9.40;82.60;;;;;;6070201;23;20013;-81
2023/02/06 08:26:20;;;;;;;6.72;3.08;;;9.40;83.10;;;;;;6070622;23;20062;-81
2023/02/06 08:28:47;;;;;;;6.63;2.58;;;9.40;82.60;;;;;;6074254;23;20046;-81
2023/02/06 08:31:19;;;;;;;7.38;3.17;;;9.40;82.60;;;;;;6098454;23;20073;-82
2023/02/06 08:33:45;;;;;;;7.57;3.40;;;9.40;82.70;;;;;;6071208;23;20013;-82
2023/02/06 08:36:11;;;;;;;6.60;2.97;;;9.40;82.70;;;;;;6093017;23;20007;-81
2023/02/06 08:38:37;;;;;;;5.82;2.65;;;9.40;82.70;;;;;;6079858;23;20010;-83
2023/02/06 08:41:03;;;;;;;5.95;2.70;;;9.40;82.70;;;;;;6099229;23;20049;-81
2023/02/06 08:43:29;;;;;;;6.78;3.03;;;9.40;82.70;;;;;;6073011;23;20007;-80
2023/02/06 08:45:58;;;;;;;6.10;2.65;;;9.40;82.70;;;;;;6070353;23;20054;-81
2023/02/06 08:48:24;;;;;;;5.72;2.33;;;9.40;82.70;;;;;;6096174;23;20006;-80
2023/02/06 08:50:50;;;;;;;8.07;3.00;;;9.40;82.70;;;;;;6096173;23;20021;-81
2023/02/06 08:53:16;;;;;;;6.70;2.83;;;9.40;82.80;;;;;;6095401;23;20076;-80
2023/02/06 08:55:41;;;;;;;5.97;2.58;;;9.40;82.70;;;;;;6076043;23;20060;-81
2023/02/06 08:58:06;;;;;;;6.65;2.67;;;9.40;82.70;;;;;;6098346;23;20003;-80
2023/02/06 09:00:32;;;;;;;6.57;2.75;;;9.40;82.70;;;;;;6070382;23;20002;-82
2023/02/06 09:02:57;;;;;;;6.78;2.67;;;9.40;82.80;;;;;;6076627;23;20006;-81
2023/02/06 09:05:23;;;;;;;5.95;2.75;;;9.40;82.70;;;;;;6098136;23;20143;-82
2023/02/06 09:07:49;;;;;;;6.78;3.25;;;9.40;82.80;;;;;;6097569;23;20056;-81
2023/02/06 09:10:15;;;;;;;6.88;3.00;;;9.40;82.80;;;;;;6094061;23;20101;-80
2023/02/06 09:12:41;;;;;;;6.72;2.95;;;9.40;82.80;;;;;;6095667;23;20449;-80
2023/02/06 09:15:08;;;;;;;6.85;2.78;;;9.40;82.80;;;;;;6069054;23;20029;-80
2023/02/06 09:17:34;;;;;;;8.23;3.10;;;9.40;82.80;;;;;;6094659;23;20393;-80
2023/02/06 09:20:00;;;;;;;7.40;3.00;;;9.40;82.80;;;;;;6078580;23;20003;-82
2023/02/06 09:22:26;;;;;;;6.78;3.05;;;9.40;82.80;;;;;;6099639;23;19995;-81
2023/02/06 09:24:52;;;;;;;6.97;2.60;;;9.40;82.80;;;;;;6099072;23;20010;-81
2023/02/06 09:27:17;;;;;;;6.38;2.83;;;9.50;82.90;;;;;;6097042;23;20012;-81
2023/02/06 09:29:43;;;;;;;6.43;2.80;;;9.40;82.80;;;;;;6095028;23;20007;-81
2023/02/06 09:32:08;;;;;;;7.38;3.08;;;9.40;82.80;;;;;;6068912;23;20463;-82
2023/02/06 09:34:34;;;;;;;8.63;3.00;;;9.40;82.80;;;;;;6071761;23;20011;-82
2023/02/06 09:37:04;;;;;;;7.03;2.90;;;9.40;82.80;;;;;;6102666;23;20453;-82
2023/02/06 09:39:31;;;;;;;6.85;2.75;;;9.50;82.90;;;;;;6076840;23;20009;-82
2023/02/06 09:42:19;;;;;;;7.10;2.83;;;9.40;82.80;;;;;;6075613;23;20002;-81
2023/02/06 09:44:50;;;;;;;7.60;2.97;;;9.40;82.90;;;;;;6101627;23;20015;-82
2023/02/06 09:47:26;;;;;;;6.80;3.20;;;9.40;82.90;;;;;;6074756;23;20014;-82
2023/02/06 09:49:57;;;;;;;8.00;3.15;;;9.50;83.00;;;;;;6075026;23;20453;-82
2023/02/06 09:52:53;;;;;;;8.17;3.20;;;9.40;82.90;;;;;;6074762;23;20049;-82
2023/02/06 09:55:34;;;;;;;5.97;3.10;;;9.50;83.00;;;;;;6061047;23;20066;-82
2023/02/06 09:58:22;;;;;;;6.78;3.03;;;9.50;83.00;;;;;;6102178;23;20281;-82
2023/02/06 10:00:54;;;;;;;7.57;3.65;;;9.40;82.80;;;;;;6074328;23;20013;-80
2023/02/06 10:03:53;;;;;;;6.60;3.00;;;9.40;82.90;;;;;;6099309;23;20010;-82
2023/02/06 10:06:28;;;;;;;6.38;3.10;;;9.40;82.90;;;;;;6099301;23;20026;-80
2023/02/06 10:09:15;;;;;;;5.70;2.63;;;9.40;83.00;;;;;;6072949;23;20014;-82
2023/02/06 10:11:48;;;;;;;6.32;2.97;;;9.50;83.00;;;;;;6103819;23;20010;-82
2023/02/06 10:14:21;;;;;;;7.22;3.28;;;9.50;83.00;;;;;;6074418;23;20337;-81
2023/02/06 10:17:24;;;;;;;6.35;2.78;;;9.50;83.00;;;;;;6098275;23;19999;-80
2023/02/06 10:20:04;;;;;;;7.30;3.30;;;9.40;83.00;;;;;;6098190;23;20009;-80
2023/02/06 10:22:42;;;;;;;6.90;3.17;;;9.50;83.00;;;;;;6097554;23;19999;-82
2023/02/06 10:25:29;;;;;;;6.82;3.10;;;9.40;82.90;;;;;;6077173;23;20089;-82
2023/02/06 10:28:01;;;;;;;7.05;3.40;;;9.50;82.90;;;;;;6076189;23;20045;-82
2023/02/06 10:30:55;;;;;;;7.18;3.20;;;9.50;82.90;;;;;;6101414;23;20384;-82
2023/02/06 10:33:24;;;;;;;9.07;3.58;;;9.50;83.00;;;;;;6101431;23;20029;-82
2023/02/06 10:36:43;;;;;;;7.78;3.20;;;9.50;83.00;;;;;;6100834;23;19999;-81
2023/02/06 10:39:55;;;;;;;7.68;3.30;;;9.50;83.00;;;;;;6040022;23;20015;-82
2023/02/06 10:42:43;;;;;;;6.88;2.85;;;9.50;83.00;;;;;;6098316;23;20003;-81
2023/02/06 10:45:29;;;;;;;6.40;2.80;;;9.50;83.00;;;;;;6100249;23;20003;-80
2023/02/06 10:48:05;;;;;;;7.72;3.22;;;9.50;83.50;;;;;;6068134;23;20026;-80
2023/02/06 10:50:44;;;;;;;6.80;3.40;;;9.50;83.50;;;;;;6073549;23;20010;-80
2023/02/06 10:53:29;;;;;;;7.88;3.15;;;9.50;83.00;;;;;;6072474;23;20386;-82
2023/02/06 10:55:59;;;;;;;6.53;3.13;;;9.50;83.00;;;;;;6072566;23;20003;-81
2023/02/06 10:58:34;;;;;;;7.00;3.05;;;9.50;83.00;;;;;;6099486;23;20006;-82
2023/02/06 11:01:00;;;;;;;7.82;3.35;;;9.50;83.10;;;;;;6099193;23;20484;-82
2023/02/06 11:03:30;;;;;;;8.07;3.67;;;9.50;83.10;;;;;;6097523;23;20006;-82
2023/02/06 11:05:57;;;;;;;6.45;2.90;;;9.50;83.10;;;;;;6071472;23;20096;-82
2023/02/06 11:08:35;;;;;;;10.13;3.95;;;9.50;83.00;;;;;;6097570;23;20006;-82
2023/02/06 11:11:22;;;;;;;7.20;3.05;;;9.50;83.00;;;;;;6071614;23;19998;-82
2023/02/06 11:13:55;;;;;;;7.95;3.60;;;9.40;82.90;;;;;;6097443;23;20081;-82
2023/02/06 11:16:26;;;;;;;8.60;3.60;;;9.50;83.10;;;;;;6097085;23;20022;-81
2023/02/06 11:18:54;;;;;;;7.93;3.28;;;9.50;83.10;;;;;;6070509;23;20014;-81
2023/02/06 11:21:44;;;;;;;6.95;3.38;;;9.50;83.10;;;;;;6096680;23;20394;-82
2023/02/06 11:24:13;;;;;;;9.45;3.53;;;9.50;83.10;;;;;;6091474;23;20062;-81
2023/02/06 11:26:59;;;;;;;8.82;3.78;;;9.50;83.10;;;;;;6072514;23;20029;-81
2023/02/06 11:29:34;;;;;;;6.53;3.30;;;9.50;83.10;;;;;;6100980;23;20007;-82
2023/02/06 11:32:03;;;;;;;7.55;3.67;;;9.50;83.10;;;;;;6096566;23;20080;-81
2023/02/06 11:34:52;;;;;;;7.68;3.45;;;9.50;83.20;;;;;;6094441;23;20452;-81
2023/02/06 11:37:35;;;;;;;7.72;3.55;;;9.50;83.10;;;;;;6078789;23;20018;-81
2023/02/06 11:40:16;;;;;;;7.60;3.22;;;9.40;83.00;;;;;;6093655;23;20342;-80
2023/02/06 11:42:51;;;;;;;8.27;3.80;;;9.50;83.10;;;;;;6093994;23;20006;-81
2023/02/06 11:45:37;;;;;;;6.70;3.15;;;9.50;83.10;;;;;;6093162;23;20054;-80
2023/02/06 11:48:04;;;;;;;7.05;3.40;;;9.40;83.10;;;;;;6093096;23;20080;-80
2023/02/06 11:50:34;;;;;;;8.02;3.55;;;9.50;83.10;;;;;;6096176;23;20006;-81
2023/02/06 11:53:13;;;;;;;7.60;3.40;;;9.50;83.10;;;;;;6094743;23;20417;-80
2023/02/06 11:55:41;;;;;;;8.57;3.47;;;9.50;83.20;;;;;;6096843;23;20006;-81
2023/02/06 11:58:12;;;;;;;8.68;3.60;;;9.50;83.30;;;;;;6094924;23;20413;-81
2023/02/06 12:00:41;;;;;;;8.45;3.92;;;9.50;83.10;;;;;;6096637;23;20077;-81
2023/02/06 12:03:29;;;;;;;7.38;3.28;;;9.50;83.10;;;;;;6096253;23;20006;-80
2023/02/06 12:05:58;;;;;;;8.20;3.60;;;9.40;83.10;;;;;;6098865;23;20010;-82
2023/02/06 12:08:28;;;;;;;8.23;3.70;;;9.50;83.10;;;;;;6100027;23;20014;-81
2023/02/06 12:11:00;;;;;;;7.68;3.63;;;9.50;83.50;;;;;;6101151;23;20017;-81
2023/02/06 12:13:38;;;;;;;8.57;3.55;;;9.50;83.30;;;;;;6096943;23;20082;-80
2023/02/06 12:16:05;;;;;;;9.00;4.13;;;9.50;83.20;;;;;;6095839;23;20002;-80
2023/02/06 12:18:37;;;;;;;7.03;3.40;;;9.50;83.20;;;;;;6094081;23;20060;-80
2023/02/06 12:21:19;;;;;;;9.63;3.58;;;9.50;83.20;;;;;;6096128;23;20002;-81
2023/02/06 12:23:57;;;;;;;9.27;3.78;;;9.50;83.20;;;;;;6094214;23;20469;-80
2023/02/06 12:26:27;;;;;;;6.55;3.38;;;9.50;83.20;;;;;;6097600;23;20003;-80
2023/02/06 12:29:06;;;;;;;7.68;3.72;;;9.40;83.20;;;;;;6095606;23;20002;-80
2023/02/06 12:31:42;;;;;;;7.93;3.60;;;9.50;83.20;;;;;;6094497;23;20010;-81
2023/02/06 12:34:18;;;;;;;8.10;3.95;;;9.50;83.30;;;;;;6095101;23;20011;-80
2023/02/06 12:37:13;;;;;;;7.65;3.72;;;9.50;83.30;;;;;;6095032;23;20003;-81
2023/02/06 12:39:40;;;;;;;6.97;3.22;;;9.50;83.30;;;;;;6070510;23;19999;-80
2023/02/06 12:42:31;;;;;;;7.32;3.58;;;9.50;83.30;;;;;;6070793;23;20011;-81
2023/02/06 12:45:01;;;;;;;7.03;3.42;;;9.40;83.20;;;;;;6094589;23;20097;-80
2023/02/06 12:47:43;;;;;;;8.23;3.85;;;9.50;83.20;;;;;;6070604;23;20453;-81
2023/02/06 12:50:18;;;;;;;8.45;4.00;;;9.40;83.20;;;;;;6073540;23;20014;-82
2023/02/06 12:52:59;;;;;;;7.22;3.47;;;9.50;83.20;;;;;;6071800;23;20002;-81
2023/02/06 12:55:33;;;;;;;;;;;9.50;83.20;;;;;;6070247;23;20011;-81
2023/02/06 12:58:00;;;;;;;6.85;3.17;;;9.50;83.20;;;;;;6096121;23;19901;-82
2023/02/06 13:00:38;;;;;;;7.32;3.65;;;9.50;83.20;;;;;;6101700;23;20010;-82
2023/02/06 13:03:51;;;;;;;7.22;3.45;;;9.50;83.20;;;;;;6076069;23;19998;-82
2023/02/06 13:06:18;;;;;;;7.43;3.17;;;9.50;83.30;;;;;;6042232;23;20003;-82
2023/02/06 13:08:55;;;;;;;8.70;3.85;;;9.50;83.20;;;;;;6040888;23;20014;-81
2023/02/06 13:11:20;;;;;;;7.38;3.42;;;9.50;83.30;;;;;;6076395;23;20416;-82
2023/02/06 13:13:48;;;;;;;7.53;3.58;;;9.50;83.30;;;;;;6101008;23;20010;-82